Time;durP1;ratioP1;P1;durP2;ratioP2;P2;SDS_P1;SDS_P2;PMS_P1;PMS_P2;Temp;Humidity;BMP_temperature;BMP_pressure;BME280_temperature;BME280_humidity;BME280_pressure;Samples;Min_cycle;Max_cycle;Signal;HPM_P1;HPM_P2
2022/09/26 00:01:22;;;;;;;17.52;7.97;;;;;;;9.77;100.00;100853.44;5062578;28;20033;-70
2022/09/26 00:03:50;;;;;;;19.13;7.87;;;;;;;9.77;100.00;100853.44;5058729;28;20049;-69
2022/09/26 00:06:17;;;;;;;15.73;8.25;;;;;;;9.77;100.00;100848.13;5059114;28;20059;-68
2022/09/26 00:08:44;;;;;;;15.65;8.15;;;;;;;9.65;100.00;100844.41;5063334;28;20044;-70
2022/09/26 00:11:12;;;;;;;15.85;7.85;;;;;;;9.68;100.00;100832.69;5056786;28;20040;-68
2022/09/26 00:13:39;;;;;;;15.73;9.35;;;;;;;9.74;100.00;100835.88;5059819;28;20051;-70
2022/09/26 00:16:05;;;;;;;21.77;9.63;;;;;;;9.73;100.00;100826.13;5059264;28;20139;-70
2022/09/26 00:18:31;;;;;;;14.98;9.15;;;;;;;9.75;100.00;100820.75;5052913;28;20123;-71
2022/09/26 00:21:11;;;;;;;19.48;9.52;;;;;;;9.73;100.00;100818.16;5062213;28;20056;-69
2022/09/26 00:23:37;;;;;;;15.63;10.57;;;;;;;9.81;100.00;100818.56;5062116;28;20055;-69
2022/09/26 00:26:03;;;;;;;18.13;11.57;;;;;;;9.84;100.00;100817.53;5061996;28;20111;-70
2022/09/26 00:28:29;;;;;;;18.35;11.75;;;;;;;9.82;100.00;100811.41;5040785;28;20119;-71
2022/09/26 00:30:55;;;;;;;21.75;11.18;;;;;;;9.88;100.00;100808.38;5062204;28;20040;-70
2022/09/26 00:33:22;;;;;;;19.42;11.27;;;;;;;9.92;100.00;100803.72;5061366;28;20040;-71
2022/09/26 00:35:54;;;;;;;19.73;11.32;;;;;;;10.02;100.00;100800.41;5034791;28;20093;-71
2022/09/26 00:38:21;;;;;;;20.25;11.43;;;;;;;10.01;100.00;100796.03;5056388;28;20800;-70
2022/09/26 00:40:47;;;;;;;19.10;11.07;;;;;;;10.00;100.00;100788.13;5035935;28;20111;-67
2022/09/26 00:43:48;;;;;;;16.92;9.90;;;;;;;10.02;100.00;100789.75;5043319;28;20032;-70
2022/09/26 00:46:41;;;;;;;19.58;10.18;;;;;;;10.10;100.00;100787.47;5048342;28;20764;-70
2022/09/26 00:49:19;;;;;;;14.32;8.27;;;;;;;10.10;100.00;100779.47;5051707;28;20128;-70
2022/09/26 00:51:54;;;;;;;21.05;8.57;;;;;;;10.16;100.00;100772.91;5061086;28;20039;-70
2022/09/26 00:54:20;;;;;;;16.67;9.25;;;;;;;10.24;100.00;100776.00;5037440;28;20056;-69
2022/09/26 00:56:49;;;;;;;16.27;9.32;;;;;;;10.28;100.00;100757.97;5038104;28;20158;-71
2022/09/26 00:59:21;;;;;;;17.02;8.88;;;;;;;10.28;100.00;100760.63;5025881;28;20055;-70
2022/09/26 01:01:48;;;;;;;;;;;;;;;10.33;100.00;100758.53;5042042;28;20049;-70
2022/09/26 01:04:13;;;;;;;15.15;8.35;;;;;;;10.35;100.00;100746.84;5060091;28;20320;-68
2022/09/26 01:06:40;;;;;;;19.50;7.97;;;;;;;10.37;100.00;100741.41;5042219;28;20043;-70
2022/09/26 01:09:07;;;;;;;14.35;8.88;;;;;;;10.40;100.00;100738.56;5057997;28;20084;-71
2022/09/26 01:11:38;;;;;;;13.82;8.13;;;;;;;10.40;100.00;100730.56;5059772;28;20041;-69
2022/09/26 01:14:09;;;;;;;17.05;9.02;;;;;;;10.43;100.00;100725.00;5056517;28;20028;-70
2022/09/26 01:16:37;;;;;;;17.90;8.50;;;;;;;10.49;100.00;100715.75;5037392;28;20042;-71
2022/09/26 01:19:17;;;;;;;15.45;8.30;;;;;;;10.46;100.00;100714.16;5054310;28;20037;-70
2022/09/26 01:21:54;;;;;;;13.48;7.55;;;;;;;10.47;100.00;100709.69;5049130;28;20048;-70
2022/09/26 01:24:49;;;;;;;12.05;7.40;;;;;;;10.54;100.00;100708.31;5055108;28;20040;-70
2022/09/26 01:27:43;;;;;;;15.50;7.40;;;;;;;10.52;100.00;100696.91;5036861;28;20098;-70
2022/09/26 01:30:20;;;;;;;13.57;7.88;;;;;;;10.57;100.00;100697.44;5041021;28;20063;-71
2022/09/26 01:33:02;;;;;;;10.82;6.65;;;;;;;10.57;100.00;100703.63;5040357;28;20467;-70
2022/09/26 01:35:41;;;;;;;12.48;7.57;;;;;;;10.66;100.00;100688.00;5036118;28;20037;-68
2022/09/26 01:38:29;;;;;;;12.45;8.50;;;;;;;10.71;100.00;100689.41;5055511;28;20052;-69
2022/09/26 01:41:10;;;;;;;12.73;7.43;;;;;;;10.70;100.00;100671.69;5050952;28;20043;-70
2022/09/26 01:43:49;;;;;;;9.63;5.88;;;;;;;10.73;100.00;100662.63;5042242;28;20028;-70
2022/09/26 01:46:42;;;;;;;10.98;7.05;;;;;;;10.72;100.00;100660.91;5037692;28;20047;-70
2022/09/26 01:49:11;;;;;;;;;;;;;;;10.67;100.00;100653.22;5059792;28;20036;-71
2022/09/26 01:51:47;;;;;;;8.65;5.85;;;;;;;10.62;100.00;100648.19;5054656;28;20023;-70
2022/09/26 01:54:17;;;;;;;12.50;6.53;;;;;;;10.67;100.00;100644.38;5037754;28;20764;-70
2022/09/26 01:56:46;;;;;;;10.85;6.97;;;;;;;10.60;100.00;100636.78;5054486;28;20037;-69
2022/09/26 01:59:24;;;;;;;15.65;6.70;;;;;;;10.67;100.00;100629.22;5041523;28;20546;-70
2022/09/26 02:01:57;;;;;;;9.98;6.78;;;;;;;10.62;100.00;100629.53;5054713;28;20839;-70
2022/09/26 02:04:29;;;;;;;10.48;7.70;;;;;;;10.60;100.00;100620.78;5054560;28;20116;-70
2022/09/26 02:07:07;;;;;;;13.15;8.30;;;;;;;10.58;100.00;100614.69;5038959;28;20036;-69
2022/09/26 02:09:45;;;;;;;18.10;9.60;;;;;;;10.58;100.00;100606.69;5043541;28;20115;-70
2022/09/26 02:12:31;;;;;;;22.90;9.77;;;;;;;10.61;100.00;100601.16;5037128;28;20033;-70
2022/09/26 02:15:00;;;;;;;16.42;10.77;;;;;;;10.59;100.00;100595.09;5061772;28;20178;-70
2022/09/26 02:17:34;;;;;;;16.35;10.45;;;;;;;10.55;100.00;100593.56;5036361;28;20033;-73
2022/09/26 02:20:09;;;;;;;22.70;10.55;;;;;;;10.52;100.00;100580.44;5060617;28;20040;-69
2022/09/26 02:22:35;;;;;;;18.02;9.55;;;;;;;10.53;100.00;100579.47;5042036;28;20040;-69
2022/09/26 02:25:03;;;;;;;14.43;8.30;;;;;;;10.56;100.00;100571.28;5036142;28;20036;-70
2022/09/26 02:27:29;;;;;;;12.43;8.10;;;;;;;10.58;100.00;100574.69;5037507;28;20064;-70
2022/09/26 02:29:56;;;;;;;15.90;8.50;;;;;;;10.54;100.00;100567.00;5039700;28;20393;-70
2022/09/26 02:32:26;;;;;;;17.90;7.40;;;;;;;10.58;100.00;100561.34;5054350;28;20873;-70
2022/09/26 02:34:53;;;;;;;15.60;7.28;;;;;;;10.57;100.00;100558.81;5036568;28;20652;-70
2022/09/26 02:37:20;;;;;;;13.57;6.97;;;;;;;10.51;100.00;100553.91;5048214;28;20472;-68
2022/09/26 02:39:49;;;;;;;13.68;7.15;;;;;;;10.53;100.00;100542.16;5053056;28;20037;-69
2022/09/26 02:42:49;;;;;;;13.98;6.95;;;;;;;10.52;100.00;100543.13;5037936;28;20159;-71
2022/09/26 02:45:24;;;;;;;;;;;;;;;10.51;100.00;100533.41;5040059;28;20024;-71
2022/09/26 02:48:18;;;;;;;9.95;6.78;;;;;;;10.55;100.00;100534.94;5032648;28;19916;-68
2022/09/26 02:51:02;;;;;;;13.90;7.50;;;;;;;10.51;100.00;100532.56;5053864;28;20118;-70
2022/09/26 02:54:01;;;;;;;13.20;7.15;;;;;;;10.54;100.00;100530.56;5038504;28;20035;-71
2022/09/26 02:56:47;;;;;;;14.95;8.13;;;;;;;10.52;100.00;100519.13;5036521;28;20752;-70
2022/09/26 02:59:22;;;;;;;12.60;6.75;;;;;;;10.57;100.00;100519.66;5032921;28;20043;-71
2022/09/26 03:02:13;;;;;;;13.15;6.95;;;;;;;10.49;100.00;100515.81;5038880;28;20221;-70
2022/09/26 03:04:47;;;;;;;14.18;6.47;;;;;;;10.55;100.00;100516.25;5020557;28;20056;-70
2022/09/26 03:07:23;;;;;;;8.45;5.32;;;;;;;10.55;100.00;100516.25;5042477;28;20046;-70
2022/09/26 03:09:50;;;;;;;11.85;5.85;;;;;;;10.54;100.00;100508.34;5036571;28;20051;-71
2022/09/26 03:12:17;;;;;;;12.15;6.03;;;;;;;10.55;100.00;100508.25;5037503;28;20037;-68
2022/09/26 03:14:45;;;;;;;13.70;5.25;;;;;;;10.55;100.00;100502.94;5034685;28;20032;-69
2022/09/26 03:17:15;;;;;;;14.50;5.63;;;;;;;10.57;100.00;100505.47;5030494;28;20111;-70
2022/09/26 03:19:50;;;;;;;8.63;5.55;;;;;;;10.56;100.00;100496.63;5037592;28;20055;-68
2022/09/26 03:22:16;;;;;;;12.93;5.55;;;;;;;10.58;100.00;100497.38;5029088;28;20167;-68
2022/09/26 03:24:42;;;;;;;10.20;5.63;;;;;;;10.55;100.00;100499.41;5037434;28;20482;-71
2022/09/26 03:27:11;;;;;;;10.55;5.25;;;;;;;10.57;100.00;100490.34;5043028;28;20112;-69
2022/09/26 03:29:37;;;;;;;18.67;5.50;;;;;;;10.54;100.00;100485.22;5041198;28;20060;-68
2022/09/26 03:32:05;;;;;;;10.63;5.75;;;;;;;10.52;100.00;100484.47;5033041;28;20036;-70
2022/09/26 03:34:32;;;;;;;12.13;5.22;;;;;;;10.49;100.00;100487.38;5021691;28;20098;-70
2022/09/26 03:36:58;;;;;;;10.27;5.82;;;;;;;10.51;100.00;100474.78;5040273;28;20033;-70
2022/09/26 03:39:23;;;;;;;11.05;4.95;;;;;;;10.52;100.00;100480.94;5041383;28;20044;-71
2022/09/26 03:41:57;;;;;;;14.02;6.80;;;;;;;10.45;100.00;100477.88;5041339;28;20033;-69
2022/09/26 03:44:28;;;;;;;14.95;6.32;;;;;;;10.40;100.00;100463.16;5023408;28;20040;-69
2022/09/26 03:47:03;;;;;;;8.13;5.97;;;;;;;10.40;100.00;100466.66;5042729;28;20066;-70
2022/09/26 03:49:29;;;;;;;10.15;6.15;;;;;;;10.39;100.00;100464.94;5040992;28;20810;-70
2022/09/26 03:51:54;;;;;;;8.95;4.95;;;;;;;10.40;100.00;100464.00;5041979;28;20033;-70
2022/09/26 03:54:20;;;;;;;9.55;5.20;;;;;;;10.37;100.00;100457.06;5039051;28;20456;-71
2022/09/26 03:56:47;;;;;;;16.83;5.13;;;;;;;10.34;100.00;100462.63;5032629;28;20195;-70
2022/09/26 03:59:12;;;;;;;10.93;6.28;;;;;;;10.37;100.00;100456.19;5023900;28;20588;-70
2022/09/26 04:01:39;;;;;;;12.57;5.22;;;;;;;10.38;100.00;100449.91;5041606;28;20048;-69
2022/09/26 04:04:04;;;;;;;10.15;5.53;;;;;;;10.40;100.00;100447.16;5056154;28;20072;-69
2022/09/26 04:06:30;;;;;;;10.90;5.63;;;;;;;10.33;100.00;100444.03;5042336;28;20343;-69
2022/09/26 04:08:57;;;;;;;9.30;5.18;;;;;;;10.40;100.00;100440.00;5036990;28;20131;-71
2022/09/26 04:11:23;;;;;;;10.70;5.57;;;;;;;10.38;100.00;100431.25;5039545;28;20491;-70
2022/09/26 04:13:50;;;;;;;8.48;5.07;;;;;;;10.26;100.00;100421.44;5040256;28;20029;-70
2022/09/26 04:16:15;;;;;;;9.77;5.13;;;;;;;10.28;100.00;100416.84;5027104;28;20041;-71
2022/09/26 04:18:48;;;;;;;10.68;5.05;;;;;;;10.22;100.00;100418.09;5024517;28;20041;-70
2022/09/26 04:21:15;;;;;;;14.60;6.00;;;;;;;10.16;100.00;100402.53;5038372;28;20039;-69
2022/09/26 04:23:42;;;;;;;8.38;5.25;;;;;;;10.17;100.00;100408.72;5037628;28;20102;-69
2022/09/26 04:26:11;;;;;;;8.43;4.95;;;;;;;10.17;100.00;100395.41;5029214;28;20179;-69
2022/09/26 04:28:38;;;;;;;11.32;4.80;;;;;;;10.17;100.00;100390.91;5037900;28;20029;-70
2022/09/26 04:31:05;;;;;;;6.93;4.35;;;;;;;10.17;100.00;100384.75;5035410;28;20107;-70
2022/09/26 04:33:33;;;;;;;12.02;4.90;;;;;;;10.16;100.00;100383.03;5033612;28;20079;-70
2022/09/26 04:36:11;;;;;;;12.10;4.93;;;;;;;10.09;100.00;100374.59;5033654;28;20063;-69
2022/09/26 04:38:38;;;;;;;9.77;4.03;;;;;;;10.15;100.00;100368.03;5036021;28;20064;-70
2022/09/26 04:41:11;;;;;;;14.68;4.32;;;;;;;10.10;100.00;100360.34;5036679;28;20085;-69
2022/09/26 04:43:37;;;;;;;7.07;4.38;;;;;;;10.08;100.00;100349.78;5037666;28;20116;-69
2022/09/26 04:46:09;;;;;;;8.80;4.63;;;;;;;10.12;100.00;100347.75;5039686;28;20036;-71
2022/09/26 04:48:36;;;;;;;;;;;;;;;10.13;100.00;100344.97;5039791;28;20037;-70
2022/09/26 04:51:13;;;;;;;9.25;3.88;;;;;;;10.09;100.00;100337.31;5037334;28;19944;-70
2022/09/26 04:53:40;;;;;;;8.18;5.13;;;;;;;10.15;100.00;100336.06;5039774;28;20575;-69
2022/09/26 04:56:14;;;;;;;9.23;4.65;;;;;;;10.07;100.00;100326.75;5039659;28;20040;-70
2022/09/26 04:58:42;;;;;;;14.95;4.43;;;;;;;10.04;100.00;100319.00;5041243;28;20414;-70
2022/09/26 05:01:10;;;;;;;9.90;4.20;;;;;;;10.09;100.00;100305.34;5033801;28;20859;-71
2022/09/26 05:03:50;;;;;;;8.00;4.50;;;;;;;10.10;100.00;100302.59;5028824;28;20049;-69
2022/09/26 05:06:17;;;;;;;11.10;4.93;;;;;;;10.18;100.00;100303.84;5040374;28;20469;-70
2022/09/26 05:08:45;;;;;;;15.05;5.55;;;;;;;10.16;100.00;100303.13;5036850;28;20080;-71
2022/09/26 05:11:13;;;;;;;19.23;5.10;;;;;;;10.15;100.00;100296.09;5040192;28;20030;-74
2022/09/26 05:13:38;;;;;;;9.60;4.85;;;;;;;10.18;100.00;100295.84;5037837;28;20044;-70
2022/09/26 05:16:07;;;;;;;8.52;4.25;;;;;;;10.16;100.00;100289.78;5035651;28;20044;-69
2022/09/26 05:18:34;;;;;;;16.02;4.88;;;;;;;10.20;100.00;100283.28;5037816;28;20289;-70
2022/09/26 05:21:02;;;;;;;11.18;4.90;;;;;;;10.20;100.00;100275.31;5039599;28;20045;-71
2022/09/26 05:26:22;;;;;;;12.00;3.97;;;;;;;10.19;100.00;100271.78;5036548;28;20152;-71
2022/09/26 05:28:54;;;;;;;5.65;3.25;;;;;;;10.17;100.00;100264.84;5038088;28;20037;-71
2022/09/26 05:31:25;;;;;;;14.65;4.57;;;;;;;10.19;100.00;100273.56;5036462;28;20053;-71
2022/09/26 05:33:50;;;;;;;8.48;4.20;;;;;;;10.23;100.00;100273.25;5031266;28;20044;-71
2022/09/26 05:36:17;;;;;;;8.38;3.83;;;;;;;10.25;100.00;100273.19;5036083;28;20551;-71
2022/09/26 05:38:44;;;;;;;9.60;3.72;;;;;;;10.28;100.00;100257.81;5036660;28;20694;-72
2022/09/26 05:41:12;;;;;;;8.30;4.03;;;;;;;10.26;100.00;100256.25;5039658;28;20040;-72
2022/09/26 05:43:37;;;;;;;8.38;3.67;;;;;;;10.22;100.00;100241.38;5036229;28;20045;-72
2022/09/26 05:46:09;;;;;;;10.98;4.03;;;;;;;10.23;100.00;100232.44;5039330;28;20036;-69
2022/09/26 05:48:39;;;;;;;5.90;3.15;;;;;;;10.18;100.00;100232.75;5039836;28;20682;-71
2022/09/26 05:51:12;;;;;;;12.27;4.63;;;;;;;10.14;100.00;100225.97;5032541;28;20029;-70
2022/09/26 05:53:41;;;;;;;9.05;4.22;;;;;;;10.13;100.00;100233.09;5036326;28;20283;-70
2022/09/26 05:56:08;;;;;;;7.78;4.13;;;;;;;10.13;100.00;100227.75;5038702;28;20029;-72
2022/09/26 05:58:57;;;;;;;9.55;4.38;;;;;;;10.13;100.00;100218.91;5040185;28;20056;-68
2022/09/26 06:01:51;;;;;;;7.07;4.93;;;;;;;10.14;100.00;100210.00;5041014;28;20049;-71
2022/09/26 06:04:31;;;;;;;9.35;4.15;;;;;;;10.09;100.00;100214.75;5040676;28;20044;-70
2022/09/26 06:07:15;;;;;;;12.20;3.85;;;;;;;10.13;100.00;100216.25;5026277;28;20067;-69
2022/09/26 06:09:41;;;;;;;12.05;4.38;;;;;;;10.07;100.00;100212.22;5039305;28;20041;-70
2022/09/26 06:12:25;;;;;;;10.65;3.65;;;;;;;10.13;100.00;100202.94;5041114;28;20071;-69
2022/09/26 06:14:52;;;;;;;9.38;4.10;;;;;;;10.14;100.00;100204.66;5053078;28;20029;-72
2022/09/26 06:17:18;;;;;;;8.85;4.15;;;;;;;10.13;100.00;100200.25;5038325;28;20082;-70
2022/09/26 06:19:44;;;;;;;6.65;3.50;;;;;;;10.22;100.00;100193.44;5040314;28;20043;-69
2022/09/26 06:22:09;;;;;;;13.32;4.65;;;;;;;10.17;100.00;100187.59;5036424;28;20051;-70
2022/09/26 06:24:36;;;;;;;13.68;4.30;;;;;;;10.23;100.00;100181.81;5037753;28;20047;-68
2022/09/26 06:27:08;;;;;;;9.73;4.00;;;;;;;10.28;100.00;100175.22;5038585;28;20515;-71
2022/09/26 06:29:33;;;;;;;12.68;4.75;;;;;;;10.36;100.00;100177.31;5023086;28;20033;-71
2022/09/26 06:32:00;;;;;;;12.40;4.15;;;;;;;10.44;100.00;100174.97;5031273;28;20042;-70
2022/09/26 06:34:31;;;;;;;8.30;3.85;;;;;;;10.55;100.00;100167.03;5040980;28;20045;-69
2022/09/26 06:37:06;;;;;;;5.30;3.55;;;;;;;10.54;100.00;100157.31;5035077;28;20067;-68
2022/09/26 06:39:35;;;;;;;9.73;4.18;;;;;;;10.62;100.00;100148.75;5033820;28;20116;-71
2022/09/26 06:42:04;;;;;;;6.22;3.85;;;;;;;10.75;100.00;100157.53;5033657;28;20048;-68
2022/09/26 06:45:09;;;;;;;9.50;3.80;;;;;;;10.76;100.00;100140.56;5004659;28;20142;-71
2022/09/26 06:47:54;;;;;;;11.60;4.13;;;;;;;10.77;100.00;100134.25;4999920;28;20477;-67
2022/09/26 06:50:58;;;;;;;11.43;4.25;;;;;;;10.72;100.00;100132.91;4938619;28;20083;-70
2022/09/26 06:53:26;;;;;;;11.10;4.53;;;;;;;10.82;100.00;100134.75;4939762;28;20075;-70
2022/09/26 06:55:51;;;;;;;9.82;4.43;;;;;;;10.84;100.00;100122.16;4941302;28;20046;-70
2022/09/26 06:58:17;;;;;;;14.43;4.38;;;;;;;10.78;100.00;100125.28;4927870;29;20051;-70
2022/09/26 07:01:05;;;;;;;7.63;4.13;;;;;;;10.84;100.00;100116.84;4940905;29;20479;-71
2022/09/26 07:04:09;;;;;;;14.63;4.32;;;;;;;10.88;100.00;100112.09;4925444;28;20071;-68
2022/09/26 07:06:41;;;;;;;11.30;4.95;;;;;;;10.86;100.00;100103.38;4944613;29;20051;-69
2022/09/26 07:09:07;;;;;;;11.50;5.43;;;;;;;11.02;100.00;100100.38;4944833;29;20088;-68
2022/09/26 07:12:00;;;;;;;14.15;5.28;;;;;;;11.12;100.00;100099.53;4928898;28;20050;-71
2022/09/26 07:14:26;;;;;;;12.35;4.57;;;;;;;11.13;100.00;100089.72;4944127;28;20035;-69
2022/09/26 07:16:59;;;;;;;13.40;5.28;;;;;;;11.16;100.00;100086.81;4931700;29;20146;-69
2022/09/26 07:19:50;;;;;;;11.75;4.70;;;;;;;11.23;100.00;100082.69;4938178;28;20055;-70
2022/09/26 07:22:36;;;;;;;12.15;4.75;;;;;;;11.32;100.00;100086.47;4942183;29;20070;-71
2022/09/26 07:25:03;;;;;;;9.02;4.13;;;;;;;11.31;100.00;100080.28;4981603;28;20068;-70
2022/09/26 07:27:28;;;;;;;11.05;4.28;;;;;;;11.23;100.00;100080.03;5023474;28;20115;-69
2022/09/26 07:29:55;;;;;;;12.98;4.88;;;;;;;11.21;100.00;100075.78;5050765;28;20390;-70
2022/09/26 07:32:21;;;;;;;13.73;4.38;;;;;;;11.13;100.00;100071.88;5041907;28;20609;-69
2022/09/26 07:34:53;;;;;;;9.43;3.60;;;;;;;11.11;100.00;100071.16;5040555;28;20083;-70
2022/09/26 07:37:18;;;;;;;10.63;4.43;;;;;;;11.09;100.00;100074.91;5040759;28;20037;-69
2022/09/26 07:39:45;;;;;;;7.57;4.00;;;;;;;11.15;100.00;100064.63;5038026;28;20038;-69
2022/09/26 07:42:13;;;;;;;9.55;4.43;;;;;;;11.16;100.00;100060.13;5037939;28;20041;-68
2022/09/26 07:44:39;;;;;;;11.65;4.38;;;;;;;11.12;100.00;100054.19;5039510;28;20053;-70
2022/09/26 07:52:54;;;;;;;13.27;4.43;;;;;;;11.18;100.00;100046.66;5035935;28;20785;-71
2022/09/26 07:55:24;;;;;;;10.57;4.70;;;;;;;11.18;100.00;100047.50;5042670;28;20041;-70
2022/09/26 07:58:05;;;;;;;12.25;4.43;;;;;;;11.19;100.00;100033.19;5040565;28;20500;-69
2022/09/26 08:00:36;;;;;;;11.45;3.83;;;;;;;11.01;100.00;100024.84;5038104;28;20521;-70
2022/09/26 08:03:13;;;;;;;11.07;4.20;;;;;;;10.98;100.00;100021.53;5039629;28;20041;-71
2022/09/26 08:05:40;;;;;;;10.45;4.43;;;;;;;10.99;100.00;100020.56;5041936;28;20033;-70
2022/09/26 08:08:06;;;;;;;10.25;4.35;;;;;;;11.02;100.00;100026.53;5037095;28;20040;-68
2022/09/26 08:10:50;;;;;;;11.52;4.00;;;;;;;11.06;100.00;100017.31;5039663;28;20039;-69
2022/09/26 08:13:34;;;;;;;8.15;4.03;;;;;;;11.20;100.00;100031.41;5040968;28;20079;-68
2022/09/26 08:16:22;;;;;;;8.93;3.97;;;;;;;11.33;100.00;100027.63;5041608;28;20064;-72
2022/09/26 08:18:50;;;;;;;10.68;4.80;;;;;;;11.47;100.00;100026.53;5038177;28;20040;-70
2022/09/26 08:21:16;;;;;;;7.68;4.47;;;;;;;11.53;100.00;100025.16;5038344;28;20040;-69
2022/09/26 08:23:42;;;;;;;7.97;4.38;;;;;;;11.58;100.00;100021.16;5040839;28;20045;-70
2022/09/26 08:26:27;;;;;;;12.57;4.93;;;;;;;11.50;100.00;100015.59;5035416;28;20052;-70
2022/09/26 08:28:58;;;;;;;12.98;3.95;;;;;;;11.44;100.00;100021.41;5038836;28;20040;-71
2022/09/26 08:31:24;;;;;;;9.40;3.92;;;;;;;11.49;100.00;100013.88;5053237;28;20044;-69
2022/09/26 08:33:50;;;;;;;9.57;4.13;;;;;;;11.53;100.00;100018.00;5020840;28;20481;-68
2022/09/26 08:36:16;;;;;;;9.48;4.32;;;;;;;11.68;100.00;100003.41;5037344;28;20028;-69
2022/09/26 08:38:58;;;;;;;7.90;3.67;;;;;;;11.63;100.00;100002.09;5039557;28;20041;-72
2022/09/26 08:42:22;;;;;;;8.55;4.18;;;;;;;11.63;100.00;99996.75;5039029;28;20088;-71
2022/09/26 08:48:50;;;;;;;12.60;3.90;;;;;;;11.78;100.00;99998.16;5049292;28;20044;-70
2022/09/26 08:51:30;;;;;;;7.53;3.45;;;;;;;11.75;100.00;99985.09;5037901;28;20767;-70
2022/09/26 08:54:10;;;;;;;7.35;2.95;;;;;;;11.79;100.00;99989.19;5037023;28;20033;-70
2022/09/26 08:56:40;;;;;;;7.03;3.50;;;;;;;11.76;100.00;99981.44;5030226;28;20045;-67
2022/09/26 08:59:16;;;;;;;6.25;3.00;;;;;;;12.03;100.00;99970.31;5023760;28;20033;-70
2022/09/26 09:01:45;;;;;;;8.57;4.15;;;;;;;12.03;100.00;99967.63;5034734;28;20064;-69
2022/09/26 09:04:37;;;;;;;5.43;3.03;;;;;;;12.15;100.00;99963.09;5038549;28;20551;-69
2022/09/26 09:07:18;;;;;;;12.07;2.92;;;;;;;12.21;100.00;99967.94;5031118;28;20098;-70
2022/09/26 09:09:44;;;;;;;4.72;2.80;;;;;;;12.26;100.00;99956.84;5049870;28;20423;-71
2022/09/26 09:12:51;;;;;;;8.80;3.47;;;;;;;12.35;100.00;99954.25;5028121;28;20051;-70
2022/09/26 09:16:02;;;;;;;8.98;2.92;;;;;;;12.47;100.00;99946.16;5039225;28;20899;-71
2022/09/26 09:19:25;;;;;;;6.25;3.42;;;;;;;12.23;100.00;99946.41;5029194;28;20052;-71
2022/09/26 09:22:43;;;;;;;9.45;3.30;;;;;;;12.15;100.00;99939.91;5012604;28;20148;-72
2022/09/26 09:25:26;;;;;;;10.02;3.53;;;;;;;12.10;100.00;99944.78;5033221;28;20036;-71
2022/09/26 09:28:17;;;;;;;8.13;3.25;;;;;;;12.14;100.00;99940.84;5032144;28;20111;-70
2022/09/26 09:31:14;;;;;;;7.78;3.15;;;;;;;12.04;100.00;99939.09;5033616;28;20584;-71
2022/09/26 09:34:20;;;;;;;7.83;3.20;;;;;;;11.97;100.00;99920.06;5017733;28;20092;-70
2022/09/26 09:37:17;;;;;;;11.77;3.90;;;;;;;12.21;100.00;99941.19;5013510;28;20051;-71
2022/09/26 09:40:30;;;;;;;6.90;3.63;;;;;;;12.31;100.00;99927.91;5033553;28;20094;-68
2022/09/26 09:43:05;;;;;;;5.88;3.42;;;;;;;12.27;100.00;99915.78;5037521;28;20033;-71
2022/09/26 09:45:45;;;;;;;12.15;3.58;;;;;;;12.25;100.00;99915.03;5033782;28;20036;-68
2022/09/26 09:48:12;;;;;;;10.85;3.97;;;;;;;12.42;100.00;99917.97;5036533;28;20363;-70
2022/09/26 09:50:50;;;;;;;6.07;3.33;;;;;;;12.64;100.00;99913.44;5034979;28;20091;-72
2022/09/26 09:53:25;;;;;;;14.68;4.25;;;;;;;12.46;100.00;99894.50;5033218;28;20052;-70
2022/09/26 09:56:20;;;;;;;6.75;3.72;;;;;;;12.31;100.00;99887.81;5037580;28;20044;-70
2022/09/26 09:59:12;;;;;;;10.02;3.78;;;;;;;12.45;100.00;99887.47;5033149;28;20051;-72
2022/09/26 10:02:18;;;;;;;6.43;3.50;;;;;;;12.43;100.00;99876.03;5026777;28;20025;-70
2022/09/26 10:05:07;;;;;;;6.88;3.75;;;;;;;12.42;100.00;99875.19;5034991;28;20048;-68
2022/09/26 10:07:33;;;;;;;10.45;3.72;;;;;;;12.47;100.00;99865.94;5036517;28;20078;-71
2022/09/26 10:10:24;;;;;;;10.90;4.22;;;;;;;12.51;100.00;99872.72;5038770;28;20075;-71
2022/09/26 10:13:15;;;;;;;13.05;4.63;;;;;;;12.67;100.00;99863.22;4977678;28;20153;-70
2022/09/26 10:16:14;;;;;;;9.82;4.13;;;;;;;12.52;100.00;99861.03;4954219;28;20113;-70
2022/09/26 10:18:54;;;;;;;10.90;4.40;;;;;;;12.42;100.00;99858.31;4971929;28;20165;-70
2022/09/26 10:21:25;;;;;;;8.40;3.95;;;;;;;12.25;100.00;99849.09;4977782;28;20046;-69
2022/09/26 10:23:51;;;;;;;11.70;4.22;;;;;;;12.26;100.00;99844.59;4974907;28;20042;-69
2022/09/26 10:26:35;;;;;;;9.90;3.95;;;;;;;12.42;100.00;99842.28;4976962;28;20042;-70
2022/09/26 10:29:24;;;;;;;8.15;4.00;;;;;;;12.29;100.00;99847.81;4962007;28;20062;-71
2022/09/26 10:31:59;;;;;;;7.82;4.05;;;;;;;12.18;100.00;99838.06;4953945;28;20068;-70
2022/09/26 10:34:30;;;;;;;10.70;4.35;;;;;;;12.14;100.00;99835.78;4971003;28;20038;-70
2022/09/26 10:36:56;;;;;;;13.98;4.68;;;;;;;12.17;100.00;99830.19;4954308;28;20047;-70
2022/09/26 10:42:18;;;;;;;9.30;4.90;;;;;;;12.04;100.00;99827.69;4959183;28;20035;-69
2022/09/26 10:44:46;;;;;;;7.97;4.35;;;;;;;12.00;100.00;99822.75;4976529;28;20061;-70
2022/09/26 10:47:32;;;;;;;9.38;4.22;;;;;;;11.98;100.00;99822.91;4976215;28;20034;-70
2022/09/26 10:50:28;;;;;;;7.35;3.95;;;;;;;12.01;100.00;99819.97;5011785;28;20048;-71
2022/09/26 10:53:35;;;;;;;8.02;4.80;;;;;;;12.09;100.00;99819.28;5032230;28;20052;-70
2022/09/26 10:56:10;;;;;;;7.60;4.18;;;;;;;12.16;100.00;99815.13;5032338;28;20064;-71
2022/09/26 10:58:43;;;;;;;14.32;4.60;;;;;;;12.07;100.00;99819.44;5037283;28;20036;-72
2022/09/26 11:01:21;;;;;;;7.05;3.95;;;;;;;11.93;100.00;99814.41;5049877;28;20045;-71
2022/09/26 11:03:48;;;;;;;12.00;4.43;;;;;;;12.01;100.00;99811.97;5037345;28;20053;-72
2022/09/26 11:06:24;;;;;;;10.20;4.47;;;;;;;12.00;100.00;99810.25;5039267;28;20828;-71
2022/09/26 11:08:56;;;;;;;7.88;4.28;;;;;;;11.97;100.00;99804.34;5034513;28;20040;-71
2022/09/26 11:11:41;;;;;;;9.70;4.32;;;;;;;11.96;100.00;99802.66;5036960;28;20103;-70
2022/09/26 11:14:08;;;;;;;8.80;5.28;;;;;;;12.06;100.00;99795.53;5035475;28;20728;-70
2022/09/26 11:16:38;;;;;;;10.98;5.00;;;;;;;11.92;100.00;99792.22;5037305;28;20956;-68
2022/09/26 11:19:20;;;;;;;12.38;4.82;;;;;;;11.99;100.00;99786.34;5032255;28;20040;-72
2022/09/26 11:21:54;;;;;;;8.60;4.50;;;;;;;12.13;100.00;99784.16;5037933;28;20106;-72
2022/09/26 11:24:41;;;;;;;7.93;4.43;;;;;;;12.17;100.00;99788.25;5044370;28;20691;-71
2022/09/26 11:27:19;;;;;;;8.95;4.22;;;;;;;12.27;100.00;99780.28;5037143;28;20044;-71
2022/09/26 11:29:52;;;;;;;9.10;4.57;;;;;;;12.24;100.00;99777.03;5020322;28;20041;-70
2022/09/26 11:32:39;;;;;;;12.35;4.90;;;;;;;12.20;100.00;99779.16;5037010;28;20056;-70
2022/09/26 11:35:58;;;;;;;8.15;4.90;;;;;;;12.15;100.00;99768.84;4994780;28;20038;-72
2022/09/26 11:38:43;;;;;;;5.25;4.20;;;;;;;12.35;100.00;99768.91;4996537;28;20044;-72
2022/09/26 11:41:36;;;;;;;10.55;4.68;;;;;;;12.22;100.00;99763.81;4980701;28;20100;-70
2022/09/26 11:44:09;;;;;;;7.43;4.53;;;;;;;12.08;100.00;99753.47;4981076;28;20124;-71
2022/09/26 11:47:25;;;;;;;14.82;5.30;;;;;;;12.11;100.00;99754.06;4964530;28;20078;-72
2022/09/26 11:50:20;;;;;;;8.07;5.05;;;;;;;12.10;100.00;99751.53;4946120;28;20050;-72
2022/09/26 11:53:32;;;;;;;9.23;4.97;;;;;;;12.04;100.00;99760.06;4962371;28;20060;-72
2022/09/26 11:56:01;;;;;;;14.50;5.72;;;;;;;11.92;100.00;99760.16;4962500;28;20085;-72
2022/09/26 11:59:18;;;;;;;10.90;4.97;;;;;;;11.79;100.00;99758.63;4961601;28;20038;-70
2022/09/26 12:02:00;;;;;;;12.25;5.15;;;;;;;11.86;100.00;99743.81;4925306;29;20071;-71
2022/09/26 12:05:00;;;;;;;7.03;4.85;;;;;;;11.72;100.00;99747.63;4927252;29;20559;-71
2022/09/26 12:07:54;;;;;;;12.20;4.55;;;;;;;11.74;100.00;99737.66;4927175;29;20078;-72
2022/09/26 12:10:44;;;;;;;8.93;4.75;;;;;;;11.76;100.00;99732.19;4921968;28;20121;-72